Wetterdaten: aktuell Donnerstag, 18.07.2019 13:15
Datum Zeit Temp. A. Feuchte A. Luftdruck Regen Wind Taupunkt Windchill Windben
18.07.2019 13:15 26,3 C 34 % 1011,9 hPa 0,0 l/m 3,8 km/h (1 Bft) 9,2 C 26,3 C 12,9 km/h (3 Bft)
18.07.2019 13:10 25,9 C 35 % 1011,9 hPa 0,0 l/m 3,0 km/h (1 Bft) 9,3 C 25,9 C 12,9 km/h (3 Bft)
18.07.2019 13:05 25,9 C 33 % 1012,0 hPa 0,0 l/m 5,3 km/h (1 Bft) 8,4 C 25,9 C 11,3 km/h (2 Bft)
18.07.2019 13:00 26,1 C 35 % 1012,0 hPa 0,0 l/m 5,9 km/h (2 Bft) 9,4 C 26,1 C 12,9 km/h (3 Bft)
18.07.2019 12:55 25,9 C 33 % 1012,0 hPa 0,0 l/m 5,2 km/h (1 Bft) 8,4 C 25,9 C 16,1 km/h (3 Bft)
18.07.2019 12:50 25,8 C 36 % 1012,1 hPa 0,0 l/m 2,6 km/h (1 Bft) 9,6 C 25,8 C 8,0 km/h (2 Bft)
18.07.2019 12:45 25,5 C 32 % 1012,1 hPa 0,0 l/m 4,3 km/h (1 Bft) 7,6 C 25,5 C 9,7 km/h (2 Bft)
18.07.2019 12:40 25,2 C 37 % 1012,3 hPa 0,0 l/m 3,2 km/h (1 Bft) 9,5 C 25,2 C 6,4 km/h (2 Bft)
18.07.2019 12:35 24,8 C 37 % 1012,4 hPa 0,0 l/m 1,9 km/h (1 Bft) 9,1 C 24,8 C 6,4 km/h (2 Bft)
18.07.2019 12:30 24,6 C 38 % 1012,4 hPa 0,0 l/m 4,3 km/h (1 Bft) 9,3 C 24,6 C 9,7 km/h (2 Bft)
18.07.2019 12:25 24,7 C 35 % 1012,4 hPa 0,0 l/m 7,3 km/h (2 Bft) 8,2 C 24,5 C 17,7 km/h (3 Bft)
18.07.2019 12:20 25,0 C 40 % 1012,4 hPa 0,0 l/m 2,5 km/h (1 Bft) 10,4 C 25,0 C 6,4 km/h (2 Bft)
18.07.2019 12:15 25,2 C 37 % 1012,4 hPa 0,0 l/m 2,0 km/h (1 Bft) 9,5 C 25,2 C 4,8 km/h (1 Bft)
18.07.2019 12:10 25,0 C 37 % 1012,4 hPa 0,0 l/m 4,7 km/h (1 Bft) 9,3 C 25,0 C 9,7 km/h (2 Bft)
18.07.2019 12:05 24,7 C 35 % 1012,3 hPa 0,0 l/m 2,8 km/h (1 Bft) 8,2 C 24,7 C 6,4 km/h (2 Bft)
18.07.2019 12:00 24,7 C 34 % 1012,4 hPa 0,0 l/m 3,2 km/h (1 Bft) 7,8 C 24,7 C 6,4 km/h (2 Bft)
18.07.2019 11:55 24,6 C 36 % 1012,5 hPa 0,0 l/m 1,8 km/h (1 Bft) 8,5 C 24,6 C 4,8 km/h (1 Bft)
18.07.2019 11:50 24,3 C 35 % 1012,6 hPa 0,0 l/m 2,0 km/h (1 Bft) 7,8 C 24,3 C 3,2 km/h (1 Bft)
18.07.2019 11:45 24,1 C 38 % 1012,7 hPa 0,0 l/m 3,5 km/h (1 Bft) 8,9 C 24,1 C 9,7 km/h (2 Bft)
18.07.2019 11:40 23,8 C 42 % 1012,7 hPa 0,0 l/m 2,9 km/h (1 Bft) 10,1 C 23,8 C 12,9 km/h (3 Bft)
18.07.2019 11:35 23,6 C 37 % 1012,7 hPa 0,0 l/m 1,5 km/h (1 Bft) 8,0 C 23,6 C 3,2 km/h (1 Bft)
_ Min-Zeit 05:45 12:45 13:10 - 00:00 02:30 05:30 00:00
Minimum _ 11,1 C 32 % 1011,9 hPa - 0,0 km/h (0 Bft) 7,3 C 11,2 C 0,0 km/h (0 Bft)
_ Max-Zeit 13:15 07:20 01:30 00:00 12:25 10:35 13:15 12:25
Maximum _ 26,3 C 87 % 1013,1 hPa 0,0 l/m 7,3 km/h
SW (2 Bft)
13,1 C 26,3 C 17,7 km/h
W (3 Bft)
Durchschnitt _ 16,4 C 64 % 1012,6 hPa #0,0 l/m 2,2 km/h (1 Bft) 9,0 C 16,4 C 4,7 km/h (1 Bft)